sensor_id;sensor_type;location;lat;lon;timestamp;pressure;altitude;pressure_sealevel;temperature;humidity
31681;BME280;18281;51.364;9.566;2023-08-17T00:02:23;100212.72;;;19.09;100.00
31681;BME280;18281;51.364;9.566;2023-08-17T00:04:48;100211.59;;;19.12;100.00
31681;BME280;18281;51.364;9.566;2023-08-17T00:07:14;100215.53;;;19.07;100.00
31681;BME280;18281;51.364;9.566;2023-08-17T00:09:39;100218.31;;;19.06;100.00
31681;BME280;18281;51.364;9.566;2023-08-17T00:12:04;100217.22;;;19.08;100.00
31681;BME280;18281;51.364;9.566;2023-08-17T00:14:30;100203.03;;;19.08;100.00
31681;BME280;18281;51.364;9.566;2023-08-17T00:16:55;100206.25;;;19.02;100.00
31681;BME280;18281;51.364;9.566;2023-08-17T00:19:21;100204.16;;;19.05;100.00
31681;BME280;18281;51.364;9.566;2023-08-17T00:21:46;100199.50;;;18.98;100.00
31681;BME280;18281;51.364;9.566;2023-08-17T00:24:11;100191.88;;;18.83;100.00
31681;BME280;18281;51.364;9.566;2023-08-17T00:26:37;100180.25;;;18.84;100.00
31681;BME280;18281;51.364;9.566;2023-08-17T00:29:02;100174.09;;;18.84;100.00
31681;BME280;18281;51.364;9.566;2023-08-17T00:31:27;100163.59;;;18.82;100.00
31681;BME280;18281;51.364;9.566;2023-08-17T00:33:53;100161.34;;;18.77;100.00
31681;BME280;18281;51.364;9.566;2023-08-17T00:36:18;100146.09;;;18.80;100.00
31681;BME280;18281;51.364;9.566;2023-08-17T00:38:43;100154.75;;;18.72;100.00
31681;BME280;18281;51.364;9.566;2023-08-17T00:41:08;100157.16;;;18.75;100.00
31681;BME280;18281;51.364;9.566;2023-08-17T00:43:34;100159.09;;;18.73;100.00
31681;BME280;18281;51.364;9.566;2023-08-17T00:45:59;100148.59;;;18.71;100.00
31681;BME280;18281;51.364;9.566;2023-08-17T00:48:25;100140.00;;;18.58;100.00
31681;BME280;18281;51.364;9.566;2023-08-17T00:50:51;100145.03;;;18.51;100.00
31681;BME280;18281;51.364;9.566;2023-08-17T00:53:17;100140.84;;;18.58;100.00
31681;BME280;18281;51.364;9.566;2023-08-17T00:55:43;100140.31;;;18.65;100.00
31681;BME280;18281;51.364;9.566;2023-08-17T00:58:09;100123.63;;;18.53;100.00
31681;BME280;18281;51.364;9.566;2023-08-17T01:00:34;100132.13;;;18.47;100.00
31681;BME280;18281;51.364;9.566;2023-08-17T01:03:00;100123.63;;;18.53;100.00
31681;BME280;18281;51.364;9.566;2023-08-17T01:05:25;100123.75;;;18.51;100.00
31681;BME280;18281;51.364;9.566;2023-08-17T01:07:50;100121.19;;;18.40;100.00
31681;BME280;18281;51.364;9.566;2023-08-17T01:10:16;100120.72;;;18.35;100.00
31681;BME280;18281;51.364;9.566;2023-08-17T01:20:07;100130.41;;;18.36;100.00
31681;BME280;18281;51.364;9.566;2023-08-17T01:22:34;100125.81;;;18.38;100.00
31681;BME280;18281;51.364;9.566;2023-08-17T01:25:00;100142.38;;;18.20;100.00
31681;BME280;18281;51.364;9.566;2023-08-17T01:27:32;100136.50;;;18.26;100.00
31681;BME280;18281;51.364;9.566;2023-08-17T01:29:58;100140.53;;;18.21;100.00
31681;BME280;18281;51.364;9.566;2023-08-17T01:32:36;100142.38;;;18.20;100.00
31681;BME280;18281;51.364;9.566;2023-08-17T01:35:04;100143.13;;;18.11;100.00
31681;BME280;18281;51.364;9.566;2023-08-17T01:37:33;100136.63;;;18.04;100.00
31681;BME280;18281;51.364;9.566;2023-08-17T01:39:59;100133.56;;;17.99;100.00
31681;BME280;18281;51.364;9.566;2023-08-17T01:42:24;100139.44;;;18.02;100.00
31681;BME280;18281;51.364;9.566;2023-08-17T01:44:50;100131.22;;;18.05;100.00
31681;BME280;18281;51.364;9.566;2023-08-17T01:47:16;100129.44;;;17.94;100.00
31681;BME280;18281;51.364;9.566;2023-08-17T01:49:45;100131.91;;;18.07;100.00
31681;BME280;18281;51.364;9.566;2023-08-17T01:52:10;100129.25;;;18.07;100.00
31681;BME280;18281;51.364;9.566;2023-08-17T01:54:35;100133.00;;;18.05;100.00
31681;BME280;18281;51.364;9.566;2023-08-17T01:57:00;100136.63;;;18.04;100.00
31681;BME280;18281;51.364;9.566;2023-08-17T01:59:25;100143.97;;;17.90;100.00
31681;BME280;18281;51.364;9.566;2023-08-17T02:01:51;100137.81;;;17.90;100.00
31681;BME280;18281;51.364;9.566;2023-08-17T02:04:16;100148.03;;;17.94;100.00
31681;BME280;18281;51.364;9.566;2023-08-17T02:06:41;100157.00;;;17.93;100.00
31681;BME280;18281;51.364;9.566;2023-08-17T02:09:06;100154.06;;;17.97;100.00
31681;BME280;18281;51.364;9.566;2023-08-17T02:11:32;100154.41;;;17.82;100.00
31681;BME280;18281;51.364;9.566;2023-08-17T02:13:57;100157.94;;;17.71;100.00
31681;BME280;18281;51.364;9.566;2023-08-17T02:16:23;100160.00;;;17.68;100.00
31681;BME280;18281;51.364;9.566;2023-08-17T02:18:48;100153.69;;;17.80;100.00
31681;BME280;18281;51.364;9.566;2023-08-17T02:21:13;100153.88;;;17.88;100.00
31681;BME280;18281;51.364;9.566;2023-08-17T02:23:38;100159.97;;;17.79;100.00
31681;BME280;18281;51.364;9.566;2023-08-17T02:26:04;100168.31;;;17.74;100.00
31681;BME280;18281;51.364;9.566;2023-08-17T02:28:29;100171.09;;;17.73;100.00
31681;BME280;18281;51.364;9.566;2023-08-17T02:30:55;100162.03;;;17.75;100.00
31681;BME280;18281;51.364;9.566;2023-08-17T02:33:20;100162.16;;;17.74;100.00
31681;BME280;18281;51.364;9.566;2023-08-17T02:35:48;100158.41;;;17.76;100.00
31681;BME280;18281;51.364;9.566;2023-08-17T02:38:14;100161.69;;;17.69;100.00
31681;BME280;18281;51.364;9.566;2023-08-17T02:40:39;100155.16;;;17.73;100.00
31681;BME280;18281;51.364;9.566;2023-08-17T02:43:04;100157.50;;;17.66;100.00
31681;BME280;18281;51.364;9.566;2023-08-17T02:45:30;100161.13;;;17.65;100.00
31681;BME280;18281;51.364;9.566;2023-08-17T02:47:55;100153.75;;;17.69;100.00
31681;BME280;18281;51.364;9.566;2023-08-17T02:50:20;100154.91;;;17.55;100.00
31681;BME280;18281;51.364;9.566;2023-08-17T02:52:45;100151.97;;;17.58;100.00
31681;BME280;18281;51.364;9.566;2023-08-17T02:55:11;100152.75;;;17.49;100.00
31681;BME280;18281;51.364;9.566;2023-08-17T02:57:36;100157.91;;;17.50;100.00
31681;BME280;18281;51.364;9.566;2023-08-17T03:00:01;100155.66;;;17.46;100.00
31681;BME280;18281;51.364;9.566;2023-08-17T03:02:27;100158.44;;;17.44;100.00
31681;BME280;18281;51.364;9.566;2023-08-17T03:04:52;100155.91;;;17.42;100.00
31681;BME280;18281;51.364;9.566;2023-08-17T03:07:17;100154.16;;;17.53;100.00
31681;BME280;18281;51.364;9.566;2023-08-17T03:09:43;100155.25;;;17.50;100.00
31681;BME280;18281;51.364;9.566;2023-08-17T03:12:08;100153.59;;;17.49;100.00
31681;BME280;18281;51.364;9.566;2023-08-17T03:14:33;100154.31;;;17.51;100.00
31681;BME280;18281;51.364;9.566;2023-08-17T03:16:59;100153.47;;;17.51;100.00
31681;BME280;18281;51.364;9.566;2023-08-17T03:19:24;100146.13;;;17.43;100.00
31681;BME280;18281;51.364;9.566;2023-08-17T03:21:49;100151.44;;;17.43;100.00
31681;BME280;18281;51.364;9.566;2023-08-17T03:24:15;100147.50;;;17.37;100.00
31681;BME280;18281;51.364;9.566;2023-08-17T03:26:40;100153.13;;;17.33;100.00
31681;BME280;18281;51.364;9.566;2023-08-17T03:29:05;100137.22;;;17.33;100.00
31681;BME280;18281;51.364;9.566;2023-08-17T03:31:31;100147.09;;;17.42;100.00
31681;BME280;18281;51.364;9.566;2023-08-17T03:33:56;100144.44;;;17.42;100.00
31681;BME280;18281;51.364;9.566;2023-08-17T03:36:21;100143.00;;;17.38;100.00
31681;BME280;18281;51.364;9.566;2023-08-17T03:38:46;100155.59;;;17.36;100.00
31681;BME280;18281;51.364;9.566;2023-08-17T03:41:12;100146.88;;;17.34;100.00
31681;BME280;18281;51.364;9.566;2023-08-17T03:43:37;100153.38;;;17.30;100.00
31681;BME280;18281;51.364;9.566;2023-08-17T03:46:03;100149.41;;;17.35;100.00
31681;BME280;18281;51.364;9.566;2023-08-17T03:48:29;100149.28;;;17.37;100.00
31681;BME280;18281;51.364;9.566;2023-08-17T03:50:54;100158.44;;;17.33;100.00
31681;BME280;18281;51.364;9.566;2023-08-17T03:53:19;100164.50;;;17.23;100.00
31681;BME280;18281;51.364;9.566;2023-08-17T03:55:45;100166.25;;;17.34;100.00
31681;BME280;18281;51.364;9.566;2023-08-17T03:58:11;100171.72;;;17.33;100.00
31681;BME280;18281;51.364;9.566;2023-08-17T04:00:36;100159.66;;;17.29;100.00
31681;BME280;18281;51.364;9.566;2023-08-17T04:03:02;100166.19;;;17.24;100.00
31681;BME280;18281;51.364;9.566;2023-08-17T04:05:27;100165.47;;;17.22;100.00
31681;BME280;18281;51.364;9.566;2023-08-17T04:07:52;100170.53;;;17.25;100.00
31681;BME280;18281;51.364;9.566;2023-08-17T04:10:17;100166.66;;;17.30;100.00
31681;BME280;18281;51.364;9.566;2023-08-17T04:12:43;100175.22;;;17.33;100.00
31681;BME280;18281;51.364;9.566;2023-08-17T04:15:08;100174.16;;;17.36;100.00
31681;BME280;18281;51.364;9.566;2023-08-17T04:17:33;100171.22;;;17.27;100.00
31681;BME280;18281;51.364;9.566;2023-08-17T04:19:59;100176.53;;;17.27;100.00
31681;BME280;18281;51.364;9.566;2023-08-17T04:22:24;100186.22;;;17.17;100.00
31681;BME280;18281;51.364;9.566;2023-08-17T04:24:49;100187.94;;;17.18;100.00
31681;BME280;18281;51.364;9.566;2023-08-17T04:27:14;100191.75;;;17.25;100.00
31681;BME280;18281;51.364;9.566;2023-08-17T04:29:40;100193.56;;;17.25;100.00
31681;BME280;18281;51.364;9.566;2023-08-17T04:32:05;100198.25;;;17.33;100.00
31681;BME280;18281;51.364;9.566;2023-08-17T04:34:30;100196.34;;;17.35;100.00
31681;BME280;18281;51.364;9.566;2023-08-17T04:36:55;100201.63;;;17.23;100.00
31681;BME280;18281;51.364;9.566;2023-08-17T04:39:21;100202.38;;;17.25;100.00
31681;BME280;18281;51.364;9.566;2023-08-17T04:41:46;100200.19;;;17.19;100.00
31681;BME280;18281;51.364;9.566;2023-08-17T04:44:11;100203.94;;;17.17;100.00
31681;BME280;18281;51.364;9.566;2023-08-17T04:46:37;100195.41;;;17.13;100.00
31681;BME280;18281;51.364;9.566;2023-08-17T04:49:02;100197.56;;;17.19;100.00
31681;BME280;18281;51.364;9.566;2023-08-17T04:51:27;100191.75;;;17.14;100.00
31681;BME280;18281;51.364;9.566;2023-08-17T04:53:53;100195.41;;;17.13;100.00
31681;BME280;18281;51.364;9.566;2023-08-17T04:56:18;100198.06;;;17.13;100.00
31681;BME280;18281;51.364;9.566;2023-08-17T04:58:43;100192.88;;;17.12;100.00
31681;BME280;18281;51.364;9.566;2023-08-17T05:01:09;100196.38;;;17.12;100.00
31681;BME280;18281;51.364;9.566;2023-08-17T05:03:35;100205.63;;;17.18;100.00
31681;BME280;18281;51.364;9.566;2023-08-17T05:06:00;100192.88;;;17.12;100.00
31681;BME280;18281;51.364;9.566;2023-08-17T05:08:25;100203.59;;;17.10;100.00
31681;BME280;18281;51.364;9.566;2023-08-17T05:10:51;100193.47;;;17.15;100.00
31681;BME280;18281;51.364;9.566;2023-08-17T05:13:16;100194.19;;;17.17;100.00
31681;BME280;18281;51.364;9.566;2023-08-17T05:15:41;100204.06;;;17.15;100.00
31681;BME280;18281;51.364;9.566;2023-08-17T05:18:07;100196.72;;;17.07;100.00
31681;BME280;18281;51.364;9.566;2023-08-17T05:20:32;100192.63;;;17.15;100.00
31681;BME280;18281;51.364;9.566;2023-08-17T05:22:57;100184.53;;;17.16;100.00
31681;BME280;18281;51.364;9.566;2023-08-17T05:25:23;100184.31;;;17.08;100.00
31681;BME280;18281;51.364;9.566;2023-08-17T05:27:49;100184.94;;;17.00;100.00
31681;BME280;18281;51.364;9.566;2023-08-17T05:30:15;100176.38;;;17.08;100.00
31681;BME280;18281;51.364;9.566;2023-08-17T05:32:40;100182.50;;;17.08;100.00
31681;BME280;18281;51.364;9.566;2023-08-17T05:35:06;100184.19;;;17.09;100.00
31681;BME280;18281;51.364;9.566;2023-08-17T05:37:31;100183.59;;;17.06;100.00
31681;BME280;18281;51.364;9.566;2023-08-17T05:39:56;100186.72;;;17.11;100.00
31681;BME280;18281;51.364;9.566;2023-08-17T05:42:21;100189.84;;;17.16;100.00
31681;BME280;18281;51.364;9.566;2023-08-17T05:44:47;100195.88;;;17.18;100.00
31681;BME280;18281;51.364;9.566;2023-08-17T05:47:12;100199.50;;;17.06;100.00
31681;BME280;18281;51.364;9.566;2023-08-17T05:49:40;100201.28;;;17.17;100.00
31681;BME280;18281;51.364;9.566;2023-08-17T05:52:05;100201.28;;;17.17;100.00
31681;BME280;18281;51.364;9.566;2023-08-17T05:54:30;100201.63;;;17.23;100.00
31681;BME280;18281;51.364;9.566;2023-08-17T05:56:55;100196.97;;;17.16;100.00
31681;BME280;18281;51.364;9.566;2023-08-17T05:59:21;100200.56;;;17.26;100.00
31681;BME280;18281;51.364;9.566;2023-08-17T06:01:46;100195.13;;;17.27;100.00
31681;BME280;18281;51.364;9.566;2023-08-17T06:04:11;100196.09;;;17.26;100.00
31681;BME280;18281;51.364;9.566;2023-08-17T06:06:36;100195.38;;;17.24;100.00
31681;BME280;18281;51.364;9.566;2023-08-17T06:09:02;100193.44;;;17.26;100.00
31681;BME280;18281;51.364;9.566;2023-08-17T06:11:27;100194.41;;;17.25;100.00
31681;BME280;18281;51.364;9.566;2023-08-17T06:13:52;100191.28;;;17.32;100.00
31681;BME280;18281;51.364;9.566;2023-08-17T06:16:17;100206.47;;;17.30;100.00
31681;BME280;18281;51.364;9.566;2023-08-17T06:18:43;100200.44;;;17.39;100.00
31681;BME280;18281;51.364;9.566;2023-08-17T06:21:08;100206.72;;;17.38;100.00
31681;BME280;18281;51.364;9.566;2023-08-17T06:23:34;100204.53;;;17.43;100.00
31681;BME280;18281;51.364;9.566;2023-08-17T06:25:59;100206.34;;;17.42;100.00
31681;BME280;18281;51.364;9.566;2023-08-17T06:28:25;100205.69;;;17.50;100.00
31681;BME280;18281;51.364;9.566;2023-08-17T06:30:54;100208.25;;;17.52;100.00
31681;BME280;18281;51.364;9.566;2023-08-17T06:33:19;100204.97;;;17.81;100.00
31681;BME280;18281;51.364;9.566;2023-08-17T06:35:45;100199.97;;;17.99;100.00
31681;BME280;18281;51.364;9.566;2023-08-17T06:38:10;100205.31;;;17.87;100.00
31681;BME280;18281;51.364;9.566;2023-08-17T06:40:35;100207.50;;;17.82;100.00
31681;BME280;18281;51.364;9.566;2023-08-17T06:43:00;100212.25;;;18.00;100.00
31681;BME280;18281;51.364;9.566;2023-08-17T06:45:26;100214.88;;;18.11;100.00
31681;BME280;18281;51.364;9.566;2023-08-17T06:47:51;100214.66;;;18.03;100.00
31681;BME280;18281;51.364;9.566;2023-08-17T06:50:16;100211.00;;;18.04;100.00
31681;BME280;18281;51.364;9.566;2023-08-17T06:52:41;100217.56;;;18.00;100.00
31681;BME280;18281;51.364;9.566;2023-08-17T06:55:07;100215.81;;;17.89;100.00
31681;BME280;18281;51.364;9.566;2023-08-17T06:57:32;100222.06;;;17.67;100.00
31681;BME280;18281;51.364;9.566;2023-08-17T06:59:57;100216.69;;;17.78;100.00
31681;BME280;18281;51.364;9.566;2023-08-17T07:02:23;100217.38;;;17.91;100.00
31681;BME280;18281;51.364;9.566;2023-08-17T07:04:48;100219.38;;;17.99;100.00
31681;BME280;18281;51.364;9.566;2023-08-17T07:07:13;100217.88;;;18.18;100.00
31681;BME280;18281;51.364;9.566;2023-08-17T07:09:39;100229.97;;;18.32;100.00
31681;BME280;18281;51.364;9.566;2023-08-17T07:12:04;100224.38;;;18.35;100.00
31681;BME280;18281;51.364;9.566;2023-08-17T07:14:29;100223.84;;;18.31;100.00
31681;BME280;18281;51.364;9.566;2023-08-17T07:16:55;100222.50;;;18.04;100.00
31681;BME280;18281;51.364;9.566;2023-08-17T07:19:21;100225.72;;;18.19;100.00
31681;BME280;18281;51.364;9.566;2023-08-17T07:21:46;100222.28;;;18.29;100.00
31681;BME280;18281;51.364;9.566;2023-08-17T07:24:12;100226.09;;;18.36;100.00
31681;BME280;18281;51.364;9.566;2023-08-17T07:26:37;100216.34;;;18.46;100.00
31681;BME280;18281;51.364;9.566;2023-08-17T07:29:04;100226.16;;;18.46;100.00
31681;BME280;18281;51.364;9.566;2023-08-17T07:31:29;100222.13;;;18.30;100.00
31681;BME280;18281;51.364;9.566;2023-08-17T07:33:55;100227.31;;;18.32;100.00
31681;BME280;18281;51.364;9.566;2023-08-17T07:36:20;100223.50;;;18.24;100.00
31681;BME280;18281;51.364;9.566;2023-08-17T07:38:46;100221.53;;;18.26;100.00
31681;BME280;18281;51.364;9.566;2023-08-17T07:41:11;100229.59;;;18.15;100.00
31681;BME280;18281;51.364;9.566;2023-08-17T07:43:36;100240.00;;;18.07;100.00
31681;BME280;18281;51.364;9.566;2023-08-17T07:46:01;100237.84;;;18.01;100.00
31681;BME280;18281;51.364;9.566;2023-08-17T07:48:27;100247.03;;;17.97;100.00
31681;BME280;18281;51.364;9.566;2023-08-17T07:50:52;100237.03;;;18.00;100.00
31681;BME280;18281;51.364;9.566;2023-08-17T07:53:18;100239.28;;;18.05;100.00
31681;BME280;18281;51.364;9.566;2023-08-17T07:55:43;100239.28;;;18.05;100.00
31681;BME280;18281;51.364;9.566;2023-08-17T07:58:09;100244.00;;;18.01;100.00
31681;BME280;18281;51.364;9.566;2023-08-17T08:00:34;100245.69;;;18.02;100.00
31681;BME280;18281;51.364;9.566;2023-08-17T08:02:59;100242.47;;;17.99;100.00
31681;BME280;18281;51.364;9.566;2023-08-17T08:05:25;100247.97;;;18.07;100.00
31681;BME280;18281;51.364;9.566;2023-08-17T08:07:50;100246.97;;;18.19;100.00
31681;BME280;18281;51.364;9.566;2023-08-17T08:10:16;100254.75;;;18.32;100.00
31681;BME280;18281;51.364;9.566;2023-08-17T08:12:41;100253.56;;;18.46;100.00
31681;BME280;18281;51.364;9.566;2023-08-17T08:15:06;100251.38;;;18.51;100.00
31681;BME280;18281;51.364;9.566;2023-08-17T08:17:31;100245.19;;;18.51;100.00
31681;BME280;18281;51.364;9.566;2023-08-17T08:19:57;100252.66;;;18.57;100.00
31681;BME280;18281;51.364;9.566;2023-08-17T08:22:23;100255.63;;;18.64;100.00
31681;BME280;18281;51.364;9.566;2023-08-17T08:24:48;100258.41;;;18.62;100.00
31681;BME280;18281;51.364;9.566;2023-08-17T08:27:13;100246.69;;;18.65;100.00
31681;BME280;18281;51.364;9.566;2023-08-17T08:29:38;100254.84;;;18.73;100.00
31681;BME280;18281;51.364;9.566;2023-08-17T08:32:04;100253.88;;;18.74;100.00
31681;BME280;18281;51.364;9.566;2023-08-17T08:34:30;100260.00;;;18.74;100.00
31681;BME280;18281;51.364;9.566;2023-08-17T08:36:55;100255.16;;;18.80;100.00
31681;BME280;18281;51.364;9.566;2023-08-17T08:39:20;100261.88;;;18.84;100.00
31681;BME280;18281;51.364;9.566;2023-08-17T08:41:45;100260.78;;;18.86;100.00
31681;BME280;18281;51.364;9.566;2023-08-17T08:44:11;100261.50;;;18.88;100.00
31681;BME280;18281;51.364;9.566;2023-08-17T08:46:36;100255.78;;;18.93;100.00
31681;BME280;18281;51.364;9.566;2023-08-17T08:49:04;100250.34;;;18.95;100.00
31681;BME280;18281;51.364;9.566;2023-08-17T08:51:31;100250.91;;;18.98;100.00
31681;BME280;18281;51.364;9.566;2023-08-17T08:54:00;100247.41;;;18.98;100.00
31681;BME280;18281;51.364;9.566;2023-08-17T08:56:32;100247.84;;;19.03;100.00
31681;BME280;18281;51.364;9.566;2023-08-17T08:58:58;100242.38;;;19.04;100.00
31681;BME280;18281;51.364;9.566;2023-08-17T09:01:26;100239.31;;;19.09;100.00
31681;BME280;18281;51.364;9.566;2023-08-17T09:03:51;100239.75;;;19.14;100.00
31681;BME280;18281;51.364;9.566;2023-08-17T09:06:17;100245.53;;;19.19;100.00
31681;BME280;18281;51.364;9.566;2023-08-17T09:08:43;100244.53;;;19.20;100.00
31681;BME280;18281;51.364;9.566;2023-08-17T09:11:08;100242.16;;;19.27;100.00
31681;BME280;18281;51.364;9.566;2023-08-17T09:13:34;100240.06;;;19.31;100.00
31681;BME280;18281;51.364;9.566;2023-08-17T09:15:59;100240.91;;;19.31;100.00
31681;BME280;18281;51.364;9.566;2023-08-17T09:18:26;100244.88;;;19.37;100.00
31681;BME280;18281;51.364;9.566;2023-08-17T09:20:51;100246.97;;;19.43;100.00
31681;BME280;18281;51.364;9.566;2023-08-17T09:23:17;100248.50;;;19.36;100.00
31681;BME280;18281;51.364;9.566;2023-08-17T09:25:45;100243.19;;;19.46;100.00
31681;BME280;18281;51.364;9.566;2023-08-17T09:28:14;100242.06;;;19.48;100.00
31681;BME280;18281;51.364;9.566;2023-08-17T09:30:49;100237.16;;;19.53;100.00
31681;BME280;18281;51.364;9.566;2023-08-17T09:33:18;100238.00;;;19.54;100.00
31681;BME280;18281;51.364;9.566;2023-08-17T09:35:43;100244.38;;;19.63;100.00
31681;BME280;18281;51.364;9.566;2023-08-17T09:38:08;100235.69;;;19.70;100.00
31681;BME280;18281;51.364;9.566;2023-08-17T09:40:33;100234.41;;;19.74;100.00
31681;BME280;18281;51.364;9.566;2023-08-17T09:42:59;100236.66;;;19.69;100.00
31681;BME280;18281;51.364;9.566;2023-08-17T09:45:25;100237.06;;;19.65;100.00
31681;BME280;18281;51.364;9.566;2023-08-17T09:47:50;100236.63;;;19.59;100.00
31681;BME280;18281;51.364;9.566;2023-08-17T09:50:15;100230.28;;;19.51;100.00
31681;BME280;18281;51.364;9.566;2023-08-17T09:52:41;100228.50;;;19.61;100.00
31681;BME280;18281;51.364;9.566;2023-08-17T09:55:07;100225.72;;;19.72;100.00
31681;BME280;18281;51.364;9.566;2023-08-17T09:57:32;100223.63;;;19.76;100.00
31681;BME280;18281;51.364;9.566;2023-08-17T09:59:58;100228.81;;;19.77;100.00
31681;BME280;18281;51.364;9.566;2023-08-17T10:02:23;100228.50;;;19.81;100.00
31681;BME280;18281;51.364;9.566;2023-08-17T10:04:49;100238.34;;;19.80;100.00
31681;BME280;18281;51.364;9.566;2023-08-17T10:07:15;100228.09;;;19.85;100.00
31681;BME280;18281;51.364;9.566;2023-08-17T10:09:42;100236.66;;;19.89;100.00
31681;BME280;18281;51.364;9.566;2023-08-17T10:12:11;100234.69;;;19.91;100.00
31681;BME280;18281;51.364;9.566;2023-08-17T10:14:39;100235.41;;;19.93;100.00
31681;BME280;18281;51.364;9.566;2023-08-17T10:17:07;100234.97;;;19.98;100.00
31681;BME280;18281;51.364;9.566;2023-08-17T10:22:16;100236.78;;;20.07;100.00
31681;BME280;18281;51.364;9.566;2023-08-17T10:24:43;100240.28;;;20.07;100.00
31681;BME280;18281;51.364;9.566;2023-08-17T10:27:09;100228.75;;;20.17;100.00
31681;BME280;18281;51.364;9.566;2023-08-17T10:29:35;100226.25;;;20.15;100.00
31681;BME280;18281;51.364;9.566;2023-08-17T10:32:01;100227.38;;;20.22;100.00
31681;BME280;18281;51.364;9.566;2023-08-17T10:34:27;100228.22;;;20.23;100.00
31681;BME280;18281;51.364;9.566;2023-08-17T10:36:52;100230.16;;;20.31;100.00
31681;BME280;18281;51.364;9.566;2023-08-17T10:39:21;100226.94;;;20.27;100.00
31681;BME280;18281;51.364;9.566;2023-08-17T10:41:47;100228.91;;;20.35;100.00
31681;BME280;18281;51.364;9.566;2023-08-17T10:44:13;100223.59;;;20.35;100.00
31681;BME280;18281;51.364;9.566;2023-08-17T10:46:38;100224.53;;;20.43;100.00
31681;BME280;18281;51.364;9.566;2023-08-17T10:49:06;100232.53;;;20.43;100.00
31681;BME280;18281;51.364;9.566;2023-08-17T10:51:32;100222.41;;;20.47;100.00
31681;BME280;18281;51.364;9.566;2023-08-17T10:53:58;100229.56;;;20.56;100.00
31681;BME280;18281;51.364;9.566;2023-08-17T10:56:24;100234.84;;;20.66;100.00
31681;BME280;18281;51.364;9.566;2023-08-17T10:58:51;100222.75;;;20.72;100.00
31681;BME280;18281;51.364;9.566;2023-08-17T11:01:30;100232.16;;;20.76;100.00
31681;BME280;18281;51.364;9.566;2023-08-17T11:06:41;100232.34;;;20.92;100.00
31681;BME280;18281;51.364;9.566;2023-08-17T11:09:07;100228.56;;;20.95;100.00
31681;BME280;18281;51.364;9.566;2023-08-17T11:11:32;100229.22;;;20.97;100.00
31681;BME280;18281;51.364;9.566;2023-08-17T11:13:58;100232.44;;;21.01;100.00
31681;BME280;18281;51.364;9.566;2023-08-17T11:16:23;100234.41;;;20.99;100.00
31681;BME280;18281;51.364;9.566;2023-08-17T11:18:48;100238.38;;;21.04;100.00
31681;BME280;18281;51.364;9.566;2023-08-17T11:21:15;100246.22;;;21.06;100.00
31681;BME280;18281;51.364;9.566;2023-08-17T11:23:40;100243.97;;;21.11;100.00
31681;BME280;18281;51.364;9.566;2023-08-17T11:26:07;100236.09;;;21.09;100.00
31681;BME280;18281;51.364;9.566;2023-08-17T11:28:32;100235.66;;;21.14;100.00
31681;BME280;18281;51.364;9.566;2023-08-17T11:31:02;100230.41;;;21.22;100.00
31681;BME280;18281;51.364;9.566;2023-08-17T11:33:28;100232.47;;;21.29;100.00
31681;BME280;18281;51.364;9.566;2023-08-17T11:35:57;100225.75;;;21.24;100.00
31681;BME280;18281;51.364;9.566;2023-08-17T11:38:23;100237.06;;;21.36;100.00
31681;BME280;18281;51.364;9.566;2023-08-17T11:40:48;100232.09;;;21.41;100.00
31681;BME280;18281;51.364;9.566;2023-08-17T11:43:14;100233.63;;;21.44;100.00
31681;BME280;18281;51.364;9.566;2023-08-17T11:45:39;100235.69;;;21.50;100.00
31681;BME280;18281;51.364;9.566;2023-08-17T11:48:05;100242.97;;;21.58;100.00
31681;BME280;18281;51.364;9.566;2023-08-17T11:50:30;100237.47;;;21.59;100.00
31681;BME280;18281;51.364;9.566;2023-08-17T11:52:58;100240.47;;;21.74;100.00
31681;BME280;18281;51.364;9.566;2023-08-17T11:55:24;100236.13;;;21.73;100.00
31681;BME280;18281;51.364;9.566;2023-08-17T11:57:49;100239.94;;;21.71;100.00
31681;BME280;18281;51.364;9.566;2023-08-17T12:00:18;100236.28;;;21.72;100.00
31681;BME280;18281;51.364;9.566;2023-08-17T12:02:46;100228.63;;;21.77;100.00
31681;BME280;18281;51.364;9.566;2023-08-17T12:05:11;100227.66;;;21.78;100.00
31681;BME280;18281;51.364;9.566;2023-08-17T12:07:37;100224.75;;;21.71;100.00
31681;BME280;18281;51.364;9.566;2023-08-17T12:10:02;100226.88;;;21.86;100.00
31681;BME280;18281;51.364;9.566;2023-08-17T12:12:28;100215.56;;;21.92;100.00
31681;BME280;18281;51.364;9.566;2023-08-17T12:14:54;100221.81;;;22.01;100.00
31681;BME280;18281;51.364;9.566;2023-08-17T12:17:20;100223.13;;;21.97;100.00
31681;BME280;18281;51.364;9.566;2023-08-17T12:19:49;100223.69;;;22.08;100.00
31681;BME280;18281;51.364;9.566;2023-08-17T12:22:14;100216.78;;;22.24;100.00
31681;BME280;18281;51.364;9.566;2023-08-17T12:24:40;100211.94;;;22.46;100.00
31681;BME280;18281;51.364;9.566;2023-08-17T12:27:05;100210.72;;;22.66;100.00
31681;BME280;18281;51.364;9.566;2023-08-17T12:29:31;100212.69;;;22.56;100.00
31681;BME280;18281;51.364;9.566;2023-08-17T12:31:57;100216.34;;;22.55;100.00
31681;BME280;18281;51.364;9.566;2023-08-17T12:34:22;100207.69;;;22.61;100.00
31681;BME280;18281;51.364;9.566;2023-08-17T12:36:48;100194.00;;;22.72;100.00
31681;BME280;18281;51.364;9.566;2023-08-17T12:39:13;100198.91;;;22.77;100.00
31681;BME280;18281;51.364;9.566;2023-08-17T12:41:39;100196.59;;;22.90;100.00
31681;BME280;18281;51.364;9.566;2023-08-17T12:44:08;100201.00;;;23.00;100.00
31681;BME280;18281;51.364;9.566;2023-08-17T12:46:34;100201.97;;;22.99;100.00